Time;durP1;ratioP1;P1;durP2;ratioP2;P2;SDS_P1;SDS_P2;PMS_P1;PMS_P2;Temp;Humidity;BMP_temperature;BMP_pressure;BME280_temperature;BME280_humidity;BME280_pressure;Samples;Min_cycle;Max_cycle;Signal;HPM_P1;HPM_P2
2022/12/26 05:10:53;;;;;;;1999.90;999.90;;;;;;;;;;4983202;28;20212;-70
2022/12/26 05:13:38;;;;;;;1999.90;999.90;;;;;;;;;;4953907;29;20403;-71
2022/12/26 05:28:43;;;;;;;1999.90;999.90;;;;;;;;;;4954773;28;20207;-69
2022/12/26 05:31:27;;;;;;;1999.90;999.90;;;;;;;;;;4959575;28;20754;-71
2022/12/26 05:34:14;;;;;;;1999.90;999.90;;;;;;;;;;4954824;28;20216;-70
2022/12/26 05:37:01;;;;;;;1999.90;999.90;;;;;;;;;;4954863;29;20232;-70
2022/12/26 05:39:46;;;;;;;1999.90;999.90;;;;;;;;;;4954544;28;20219;-70
2022/12/26 05:42:31;;;;;;;1999.90;999.90;;;;;;;;;;4954604;28;20232;-69
2022/12/26 05:45:15;;;;;;;1999.90;999.90;;;;;;;;;;4964752;28;20299;-71
2022/12/26 05:48:01;;;;;;;1999.90;999.90;;;;;;;;;;4954636;29;20284;-70
2022/12/26 05:50:46;;;;;;;1999.90;999.90;;;;;;;;;;4973124;28;20275;-71
2022/12/26 05:53:32;;;;;;;1999.90;999.90;;;;;;;;;;4973839;28;20247;-72
2022/12/26 05:56:18;;;;;;;1999.90;999.90;;;;;;;;;;4973549;28;20216;-71
2022/12/26 05:59:03;;;;;;;1999.90;999.90;;;;;;;;;;4973678;28;20227;-71
2022/12/26 06:01:48;;;;;;;1999.90;999.90;;;;;;;;;;4963497;28;20834;-72
2022/12/26 06:04:35;;;;;;;1999.90;999.90;;;;;;;;;;4953742;29;20327;-71
2022/12/26 06:07:20;;;;;;;1999.90;999.90;;;;;;;;;;4954260;29;20279;-70
2022/12/26 06:10:06;;;;;;;1999.90;999.90;;;;;;;;;;4954319;29;20220;-71
2022/12/26 06:12:52;;;;;;;1999.90;999.90;;;;;;;;;;4954259;29;20208;-70
2022/12/26 06:15:38;;;;;;;1999.90;999.90;;;;;;;;;;4953902;29;20662;-70
2022/12/26 06:18:22;;;;;;;1999.90;999.90;;;;;;;;;;4954163;29;20212;-71
2022/12/26 06:21:09;;;;;;;1999.90;999.90;;;;;;;;;;4954036;28;20228;-71
2022/12/26 06:23:54;;;;;;;1999.90;999.90;;;;;;;;;;4953911;29;20223;-70
2022/12/26 06:26:40;;;;;;;1999.90;999.90;;;;;;;;;;4954093;29;20215;-70
2022/12/26 06:29:25;;;;;;;1999.90;999.90;;;;;;;;;;4964990;28;20215;-66
2022/12/26 06:32:10;;;;;;;1999.90;999.90;;;;;;;;;;4953556;29;20276;-68
2022/12/26 06:34:56;;;;;;;1999.90;999.90;;;;;;;;;;4971203;28;20215;-68
2022/12/26 06:37:41;;;;;;;1999.90;999.90;;;;;;;;;;4973193;28;20527;-67
2022/12/26 06:40:26;;;;;;;1999.90;999.90;;;;;;;;;;4973540;28;20547;-69
2022/12/26 06:43:13;;;;;;;1999.90;999.90;;;;;;;;;;4974448;28;20220;-68
2022/12/26 06:45:59;;;;;;;1999.90;999.90;;;;;;;;;;4965975;28;20208;-67
2022/12/26 06:48:44;;;;;;;1999.90;999.90;;;;;;;;;;4955181;29;20208;-68
2022/12/26 06:51:29;;;;;;;1999.90;999.90;;;;;;;;;;4954775;28;20231;-68
2022/12/26 06:54:14;;;;;;;1999.90;999.90;;;;;;;;;;4954138;29;20221;-68
2022/12/26 06:56:59;;;;;;;1999.90;999.90;;;;;;;;;;4971583;28;20214;-68
2022/12/26 06:59:45;;;;;;;1999.90;999.90;;;;;;;;;;4970990;28;20207;-68
2022/12/26 07:02:30;;;;;;;1999.90;999.90;;;;;;;;;;4968381;28;20616;-69
2022/12/26 07:05:15;;;;;;;1999.90;999.90;;;;;;;;;;4972425;28;20230;-69
2022/12/26 07:08:00;;;;;;;1999.90;999.90;;;;;;;;;;4972919;28;20348;-69
2022/12/26 07:10:44;;;;;;;1999.90;999.90;;;;;;;;;;4972868;28;20234;-69
2022/12/26 07:13:29;;;;;;;1999.90;999.90;;;;;;;;;;4970337;28;20206;-69
2022/12/26 07:16:16;;;;;;;1999.90;999.90;;;;;;;;;;4961099;28;20696;-67
2022/12/26 07:19:01;;;;;;;1999.90;999.90;;;;;;;;;;4972745;28;20266;-69
2022/12/26 07:21:46;;;;;;;1999.90;999.90;;;;;;;;;;4970879;28;20273;-69
2022/12/26 07:24:31;;;;;;;1999.90;999.90;;;;;;;;;;4971533;28;20702;-70
2022/12/26 07:27:16;;;;;;;1999.90;999.90;;;;;;;;;;4972724;28;20287;-69
2022/12/26 07:30:01;;;;;;;1999.90;999.90;;;;;;;;;;4972787;28;20728;-69
2022/12/26 07:32:47;;;;;;;1999.90;999.90;;;;;;;;;;4972577;28;20846;-68
2022/12/26 07:35:32;;;;;;;1999.90;999.90;;;;;;;;;;4972139;28;20211;-68
2022/12/26 07:38:17;;;;;;;1999.90;999.90;;;;;;;;;;4972674;28;20218;-68
2022/12/26 07:41:56;;;;;;;1999.90;999.90;;;;;;;;;;4971464;28;20798;-69
2022/12/26 07:44:09;;;;;;;1999.90;999.90;;;;;;;;;;4966403;28;20301;-68
2022/12/26 07:46:54;;;;;;;1999.90;999.90;;;;;;;;;;4956674;29;20224;-68
2022/12/26 07:49:41;;;;;;;1999.90;999.90;;;;;;;;;;4972743;28;20319;-69
2022/12/26 07:52:26;;;;;;;1999.90;999.90;;;;;;;;;;4975781;28;20238;-69
2022/12/26 07:55:11;;;;;;;1999.90;999.90;;;;;;;;;;4975626;28;20203;-69
2022/12/26 07:57:56;;;;;;;1999.90;999.90;;;;;;;;;;4976419;28;20236;-69
2022/12/26 08:00:41;;;;;;;1999.90;999.90;;;;;;;;;;4974958;28;20271;-65
2022/12/26 08:03:26;;;;;;;1999.90;999.90;;;;;;;;;;4974044;28;20431;-69
2022/12/26 08:06:13;;;;;;;1999.90;999.90;;;;;;;;;;4975241;28;20271;-69
2022/12/26 08:08:58;;;;;;;1999.90;999.90;;;;;;;;;;4975753;28;20316;-69
2022/12/26 08:11:43;;;;;;;1999.90;999.90;;;;;;;;;;4975600;28;20248;-69
2022/12/26 08:14:28;;;;;;;1999.90;999.90;;;;;;;;;;4975026;28;20690;-69
2022/12/26 08:17:13;;;;;;;1999.90;999.90;;;;;;;;;;4975760;28;20215;-69
2022/12/26 08:19:58;;;;;;;1999.90;999.90;;;;;;;;;;4975295;28;20204;-69
2022/12/26 08:22:44;;;;;;;1999.90;999.90;;;;;;;;;;4975388;28;20737;-69
2022/12/26 08:25:29;;;;;;;1999.90;999.90;;;;;;;;;;4974968;28;20231;-69
2022/12/26 08:28:14;;;;;;;1999.90;999.90;;;;;;;;;;4975486;28;20210;-68
2022/12/26 08:30:59;;;;;;;1999.90;999.90;;;;;;;;;;4975200;28;20243;-69
2022/12/26 08:33:45;;;;;;;1999.90;999.90;;;;;;;;;;4975249;28;20339;-69
2022/12/26 08:36:30;;;;;;;1999.90;999.90;;;;;;;;;;4974924;28;20199;-69
2022/12/26 08:39:16;;;;;;;1999.90;999.90;;;;;;;;;;4975382;28;20212;-68
2022/12/26 08:42:01;;;;;;;1999.90;999.90;;;;;;;;;;4969454;28;20722;-69
2022/12/26 08:44:46;;;;;;;1999.90;999.90;;;;;;;;;;4974143;28;20272;-69
2022/12/26 08:47:31;;;;;;;1999.90;999.90;;;;;;;;;;4959672;29;20215;-70
2022/12/26 08:50:17;;;;;;;1999.90;999.90;;;;;;;;;;4955435;29;20235;-69
2022/12/26 08:53:02;;;;;;;1999.90;999.90;;;;;;;;;;4955277;29;20264;-69
2022/12/26 08:55:49;;;;;;;1999.90;999.90;;;;;;;;;;4954736;28;20233;-68
2022/12/26 08:58:34;;;;;;;1999.90;999.90;;;;;;;;;;4975675;28;20205;-69
2022/12/26 09:01:20;;;;;;;1999.90;999.90;;;;;;;;;;4975909;28;20708;-68
2022/12/26 09:04:06;;;;;;;1999.90;999.90;;;;;;;;;;4975630;28;20211;-68
2022/12/26 09:06:51;;;;;;;1999.90;999.90;;;;;;;;;;4975996;28;20208;-68
2022/12/26 09:09:36;;;;;;;1999.90;999.90;;;;;;;;;;4974648;28;20203;-70
2022/12/26 09:12:22;;;;;;;1999.90;999.90;;;;;;;;;;4977405;28;20234;-69
2022/12/26 09:15:07;;;;;;;1999.90;999.90;;;;;;;;;;4965431;28;20208;-69
2022/12/26 09:17:53;;;;;;;1999.90;999.90;;;;;;;;;;4959367;29;20445;-69
2022/12/26 09:20:37;;;;;;;1999.90;999.90;;;;;;;;;;4959158;29;20691;-68
2022/12/26 09:23:22;;;;;;;1999.90;999.90;;;;;;;;;;4958092;28;20282;-70
2022/12/26 09:26:08;;;;;;;1999.90;999.90;;;;;;;;;;4952853;29;20220;-70
2022/12/26 09:28:55;;;;;;;1999.90;999.90;;;;;;;;;;4954984;29;20584;-69
2022/12/26 09:31:40;;;;;;;1999.90;999.90;;;;;;;;;;4954807;29;20311;-69
2022/12/26 09:34:25;;;;;;;1999.90;999.90;;;;;;;;;;4953521;29;20335;-68
2022/12/26 09:37:10;;;;;;;1999.90;999.90;;;;;;;;;;4954575;29;20208;-69
2022/12/26 09:39:55;;;;;;;1999.90;999.90;;;;;;;;;;4954742;29;20216;-68
2022/12/26 09:42:43;;;;;;;1999.90;999.90;;;;;;;;;;4954627;29;20252;-69
2022/12/26 09:45:36;;;;;;;1999.90;999.90;;;;;;;;;;4954162;29;20708;-69
2022/12/26 09:48:25;;;;;;;1999.90;999.90;;;;;;;;;;4954597;29;20210;-69
2022/12/26 09:51:10;;;;;;;1999.90;999.90;;;;;;;;;;4954510;29;20237;-69
2022/12/26 09:53:56;;;;;;;1999.90;999.90;;;;;;;;;;4954545;29;20204;-69
2022/12/26 09:56:41;;;;;;;1999.90;999.90;;;;;;;;;;4954406;29;20248;-69
2022/12/26 09:59:28;;;;;;;1999.90;999.90;;;;;;;;;;4954462;29;20296;-68
2022/12/26 10:02:17;;;;;;;1999.90;999.90;;;;;;;;;;4955686;29;20762;-69
2022/12/26 10:05:02;;;;;;;1999.90;999.90;;;;;;;;;;4954093;29;20232;-69
2022/12/26 10:07:51;;;;;;;1999.90;999.90;;;;;;;;;;4953692;28;20217;-69
2022/12/26 10:10:40;;;;;;;1999.90;999.90;;;;;;;;;;4954299;29;20344;-70
2022/12/26 10:13:29;;;;;;;1999.90;999.90;;;;;;;;;;4954235;29;20204;-69
2022/12/26 10:16:16;;;;;;;1999.90;999.90;;;;;;;;;;4953794;29;20224;-68
2022/12/26 10:19:05;;;;;;;1999.90;999.90;;;;;;;;;;4953071;29;20916;-69
2022/12/26 10:21:53;;;;;;;1999.90;999.90;;;;;;;;;;4954159;29;20517;-69
2022/12/26 10:24:40;;;;;;;1999.90;999.90;;;;;;;;;;4953747;29;20208;-69
2022/12/26 10:27:26;;;;;;;1999.90;999.90;;;;;;;;;;4953780;29;20213;-69
2022/12/26 10:30:15;;;;;;;1999.90;999.90;;;;;;;;;;4954031;29;20211;-68
2022/12/26 10:33:02;;;;;;;1999.90;999.90;;;;;;;;;;4954051;29;20706;-69
2022/12/26 10:35:49;;;;;;;1999.90;999.90;;;;;;;;;;4953645;29;20207;-69
2022/12/26 10:38:37;;;;;;;1999.90;999.90;;;;;;;;;;4954661;29;20690;-68
2022/12/26 10:41:25;;;;;;;1999.90;999.90;;;;;;;;;;4952951;29;20444;-70
2022/12/26 10:44:11;;;;;;;1999.90;999.90;;;;;;;;;;4953758;29;20213;-68
2022/12/26 10:47:07;;;;;;;1999.90;999.90;;;;;;;;;;4953667;29;20224;-70
2022/12/26 10:49:52;;;;;;;1999.90;999.90;;;;;;;;;;4954103;29;20333;-69
2022/12/26 10:52:39;;;;;;;1999.90;999.90;;;;;;;;;;4953948;29;20240;-66
2022/12/26 10:55:26;;;;;;;1999.90;999.90;;;;;;;;;;4953553;29;20220;-68
2022/12/26 10:58:15;;;;;;;1999.90;999.90;;;;;;;;;;4953780;29;20350;-69
2022/12/26 11:01:21;;;;;;;1999.90;999.90;;;;;;;;;;4953434;29;20240;-70
2022/12/26 11:04:07;;;;;;;1999.90;999.90;;;;;;;;;;4953762;29;20269;-69
2022/12/26 11:06:52;;;;;;;1999.90;999.90;;;;;;;;;;4953586;29;20304;-68
2022/12/26 11:09:41;;;;;;;1999.90;999.90;;;;;;;;;;4953844;29;20235;-70
2022/12/26 11:12:30;;;;;;;1999.90;999.90;;;;;;;;;;4953345;29;20774;-68
2022/12/26 11:15:20;;;;;;;1999.90;999.90;;;;;;;;;;4954366;29;20700;-68
2022/12/26 11:18:14;;;;;;;1999.90;999.90;;;;;;;;;;4955804;28;20282;-69
2022/12/26 11:21:11;;;;;;;1999.90;999.90;;;;;;;;;;4962505;29;20319;-69
2022/12/26 11:24:10;;;;;;;1999.90;999.90;;;;;;;;;;4958425;29;20660;-68
2022/12/26 11:27:15;;;;;;;1999.90;999.90;;;;;;;;;;4961739;29;20271;-69
2022/12/26 11:30:15;;;;;;;1999.90;999.90;;;;;;;;;;4959086;29;20212;-68
2022/12/26 11:33:05;;;;;;;1999.90;999.90;;;;;;;;;;4959873;29;20324;-69
2022/12/26 11:35:52;;;;;;;1999.90;999.90;;;;;;;;;;4958053;29;20204;-69
2022/12/26 11:38:55;;;;;;;1999.90;999.90;;;;;;;;;;4958231;29;20209;-70
2022/12/26 11:41:40;;;;;;;1999.90;999.90;;;;;;;;;;4957677;29;20244;-69
2022/12/26 11:44:29;;;;;;;1999.90;999.90;;;;;;;;;;4956811;29;20215;-68
2022/12/26 11:47:14;;;;;;;1999.90;999.90;;;;;;;;;;4957043;29;20248;-70
2022/12/26 11:50:00;;;;;;;1999.90;999.90;;;;;;;;;;4957649;29;20212;-69
2022/12/26 11:52:47;;;;;;;1999.90;999.90;;;;;;;;;;4956643;29;20389;-68
2022/12/26 11:55:33;;;;;;;1999.90;999.90;;;;;;;;;;4956414;29;20587;-69
2022/12/26 11:58:19;;;;;;;1999.90;999.90;;;;;;;;;;4956727;29;20264;-68
2022/12/26 12:01:12;;;;;;;1999.90;999.90;;;;;;;;;;4957946;29;20247;-69
2022/12/26 12:03:58;;;;;;;1999.90;999.90;;;;;;;;;;4956526;29;20264;-70
2022/12/26 12:06:51;;;;;;;1999.90;999.90;;;;;;;;;;4956469;29;20235;-70
2022/12/26 12:09:40;;;;;;;1999.90;999.90;;;;;;;;;;4956185;29;20228;-69
2022/12/26 12:12:30;;;;;;;1999.90;999.90;;;;;;;;;;4956248;29;20235;-70
2022/12/26 12:15:18;;;;;;;1999.90;999.90;;;;;;;;;;4957667;29;20204;-69
2022/12/26 12:18:06;;;;;;;1999.90;999.90;;;;;;;;;;4958763;29;20578;-70
2022/12/26 12:20:59;;;;;;;1999.90;999.90;;;;;;;;;;4956159;29;20812;-69
2022/12/26 12:23:53;;;;;;;1999.90;999.90;;;;;;;;;;4957578;29;20207;-68
2022/12/26 12:26:43;;;;;;;1999.90;999.90;;;;;;;;;;4958128;29;20221;-69
2022/12/26 12:29:35;;;;;;;1999.90;999.90;;;;;;;;;;4958041;28;20221;-69
2022/12/26 12:32:25;;;;;;;1999.90;999.90;;;;;;;;;;4956320;29;20628;-69
2022/12/26 12:35:22;;;;;;;1999.90;999.90;;;;;;;;;;4955834;29;20208;-69
2022/12/26 12:38:24;;;;;;;1999.90;999.90;;;;;;;;;;4956346;29;20212;-69
2022/12/26 12:41:15;;;;;;;1999.90;999.90;;;;;;;;;;4958078;29;20287;-70
2022/12/26 12:44:04;;;;;;;1999.90;999.90;;;;;;;;;;4957196;29;20247;-72
2022/12/26 12:46:53;;;;;;;1999.90;999.90;;;;;;;;;;4955977;29;20228;-71
2022/12/26 12:49:44;;;;;;;1999.90;999.90;;;;;;;;;;4956992;29;20253;-73
2022/12/26 12:52:37;;;;;;;1999.90;999.90;;;;;;;;;;4956602;29;20309;-71
2022/12/26 12:55:31;;;;;;;1999.90;999.90;;;;;;;;;;4955300;29;20208;-72
2022/12/26 12:58:22;;;;;;;1999.90;999.90;;;;;;;;;;4956247;29;20207;-71
2022/12/26 13:01:09;;;;;;;1999.90;999.90;;;;;;;;;;4957660;29;20235;-70
2022/12/26 13:03:57;;;;;;;1999.90;999.90;;;;;;;;;;4958457;29;20212;-72
2022/12/26 13:06:45;;;;;;;1999.90;999.90;;;;;;;;;;4955416;29;20239;-71
2022/12/26 13:09:34;;;;;;;1999.90;999.90;;;;;;;;;;4957167;29;20253;-70
2022/12/26 13:12:21;;;;;;;1999.90;999.90;;;;;;;;;;4958269;29;20726;-72
2022/12/26 13:15:08;;;;;;;1999.90;999.90;;;;;;;;;;4955674;29;20559;-70
2022/12/26 13:17:56;;;;;;;1999.90;999.90;;;;;;;;;;4959044;29;20271;-70
2022/12/26 13:20:43;;;;;;;1999.90;999.90;;;;;;;;;;4956003;29;20240;-70
2022/12/26 13:26:37;;;;;;;1999.90;999.90;;;;;;;;;;4955056;29;20765;-69
2022/12/26 13:29:31;;;;;;;1999.90;999.90;;;;;;;;;;4954756;29;20210;-70
2022/12/26 13:32:19;;;;;;;1999.90;999.90;;;;;;;;;;4955387;29;20291;-71
2022/12/26 13:35:04;;;;;;;1999.90;999.90;;;;;;;;;;4956457;29;20216;-71
2022/12/26 13:37:54;;;;;;;1999.90;999.90;;;;;;;;;;4955868;29;20292;-71
2022/12/26 13:40:45;;;;;;;1999.90;999.90;;;;;;;;;;4957556;28;20209;-72
2022/12/26 13:46:36;;;;;;;1999.90;999.90;;;;;;;;;;4955850;29;20234;-69
2022/12/26 13:49:29;;;;;;;1999.90;999.90;;;;;;;;;;4964483;29;20263;-70
2022/12/26 13:52:25;;;;;;;1999.90;999.90;;;;;;;;;;4961509;28;20733;-71
2022/12/26 13:55:29;;;;;;;1999.90;999.90;;;;;;;;;;4955267;29;20635;-70
2022/12/26 13:58:45;;;;;;;1999.90;999.90;;;;;;;;;;4954675;29;20240;-71
2022/12/26 14:01:38;;;;;;;1999.90;999.90;;;;;;;;;;4896231;29;20232;-71
2022/12/26 14:04:31;;;;;;;1999.90;999.90;;;;;;;;;;4954148;29;20819;-71
2022/12/26 14:07:21;;;;;;;1999.90;999.90;;;;;;;;;;4954289;29;20232;-71
2022/12/26 14:10:13;;;;;;;1999.90;999.90;;;;;;;;;;4965185;28;20228;-68
2022/12/26 14:13:02;;;;;;;1999.90;999.90;;;;;;;;;;4957932;28;20209;-69
2022/12/26 14:15:51;;;;;;;1999.90;999.90;;;;;;;;;;4977021;28;20221;-70
2022/12/26 14:18:44;;;;;;;1999.90;999.90;;;;;;;;;;4970700;28;20795;-69
2022/12/26 14:21:33;;;;;;;1999.90;999.90;;;;;;;;;;4976421;28;20242;-69
2022/12/26 14:24:23;;;;;;;1999.90;999.90;;;;;;;;;;4957108;28;20207;-67
2022/12/26 14:27:24;;;;;;;1999.90;999.90;;;;;;;;;;4954552;28;20226;-68
2022/12/26 14:30:20;;;;;;;1999.90;999.90;;;;;;;;;;4956186;29;20820;-69
2022/12/26 14:33:20;;;;;;;1999.90;999.90;;;;;;;;;;4954624;28;20215;-69
2022/12/26 14:36:16;;;;;;;1999.90;999.90;;;;;;;;;;4970362;28;20202;-69
2022/12/26 14:39:03;;;;;;;1999.90;999.90;;;;;;;;;;4976128;28;20419;-69
2022/12/26 14:45:13;;;;;;;1999.90;999.90;;;;;;;;;;4971231;28;20190;-71
2022/12/26 14:47:58;;;;;;;1999.90;999.90;;;;;;;;;;4972621;28;20241;-70
2022/12/26 14:50:44;;;;;;;1999.90;999.90;;;;;;;;;;4973250;28;20274;-70
2022/12/26 14:53:33;;;;;;;1999.90;999.90;;;;;;;;;;4959041;28;20212;-70
2022/12/26 14:56:29;;;;;;;1999.90;999.90;;;;;;;;;;4957968;28;20218;-71
2022/12/26 14:59:26;;;;;;;1999.90;999.90;;;;;;;;;;4967702;28;20619;-70
2022/12/26 15:02:24;;;;;;;1999.90;999.90;;;;;;;;;;4961178;28;20345;-70
2022/12/26 15:05:12;;;;;;;1999.90;999.90;;;;;;;;;;4963446;28;20214;-70
2022/12/26 15:08:10;;;;;;;1999.90;999.90;;;;;;;;;;4967982;28;20237;-68
2022/12/26 15:11:07;;;;;;;1999.90;999.90;;;;;;;;;;4975636;28;20761;-68
2022/12/26 15:14:03;;;;;;;1999.90;999.90;;;;;;;;;;4958001;28;20277;-70
2022/12/26 15:16:53;;;;;;;1999.90;999.90;;;;;;;;;;4974194;28;20599;-71
2022/12/26 15:19:53;;;;;;;1999.90;999.90;;;;;;;;;;4969737;28;20571;-70
2022/12/26 15:22:56;;;;;;;1999.90;999.90;;;;;;;;;;4964744;28;20372;-69
2022/12/26 15:25:59;;;;;;;1999.90;999.90;;;;;;;;;;4972733;28;20290;-70
2022/12/26 15:28:51;;;;;;;1999.90;999.90;;;;;;;;;;4977616;28;20282;-70
2022/12/26 15:31:38;;;;;;;1999.90;999.90;;;;;;;;;;4975335;28;20226;-70
2022/12/26 15:34:39;;;;;;;1999.90;999.90;;;;;;;;;;4975009;28;20232;-69
2022/12/26 15:37:42;;;;;;;1999.90;999.90;;;;;;;;;;4974509;28;20206;-69
2022/12/26 15:40:28;;;;;;;1999.90;999.90;;;;;;;;;;4944582;28;20426;-70
2022/12/26 15:43:23;;;;;;;1999.90;999.90;;;;;;;;;;4975476;28;20600;-68
2022/12/26 15:46:16;;;;;;;1999.90;999.90;;;;;;;;;;4975057;28;20283;-69
2022/12/26 15:49:17;;;;;;;1999.90;999.90;;;;;;;;;;4972112;28;20210;-69
2022/12/26 15:52:09;;;;;;;1999.90;999.90;;;;;;;;;;4975271;28;20820;-70
2022/12/26 15:55:08;;;;;;;1999.90;999.90;;;;;;;;;;4975025;28;20373;-69
2022/12/26 15:57:57;;;;;;;1999.90;999.90;;;;;;;;;;4976831;28;20668;-70
2022/12/26 16:00:48;;;;;;;1999.90;999.90;;;;;;;;;;4983366;28;20229;-69
2022/12/26 16:03:40;;;;;;;1999.90;999.90;;;;;;;;;;4974789;28;20211;-69
2022/12/26 16:06:30;;;;;;;1999.90;999.90;;;;;;;;;;4969071;28;20221;-69
2022/12/26 16:09:23;;;;;;;1999.90;999.90;;;;;;;;;;4957469;28;20208;-69
2022/12/26 16:12:19;;;;;;;1999.90;999.90;;;;;;;;;;4956662;29;20262;-69
2022/12/26 16:15:14;;;;;;;1999.90;999.90;;;;;;;;;;4956414;29;20333;-69
2022/12/26 16:18:12;;;;;;;1999.90;999.90;;;;;;;;;;4956410;29;20200;-69
2022/12/26 16:24:03;;;;;;;1999.90;999.90;;;;;;;;;;4956115;29;20252;-69
2022/12/26 16:26:48;;;;;;;1999.90;999.90;;;;;;;;;;4956248;29;20217;-69
2022/12/26 16:29:36;;;;;;;1999.90;999.90;;;;;;;;;;4956327;29;20236;-68
2022/12/26 16:32:29;;;;;;;1999.90;999.90;;;;;;;;;;4956048;29;20333;-68
2022/12/26 16:35:16;;;;;;;1999.90;999.90;;;;;;;;;;4955885;29;20204;-69
2022/12/26 16:38:05;;;;;;;1999.90;999.90;;;;;;;;;;4955948;29;20209;-69
2022/12/26 16:40:51;;;;;;;1999.90;999.90;;;;;;;;;;4956174;29;20435;-69
2022/12/26 16:43:36;;;;;;;1999.90;999.90;;;;;;;;;;4956053;29;20228;-69
2022/12/26 16:46:23;;;;;;;1999.90;999.90;;;;;;;;;;4955724;29;20212;-69
2022/12/26 16:49:09;;;;;;;1999.90;999.90;;;;;;;;;;4956796;29;20212;-70
2022/12/26 16:51:55;;;;;;;1999.90;999.90;;;;;;;;;;4955905;29;20252;-70
2022/12/26 16:54:42;;;;;;;1999.90;999.90;;;;;;;;;;4955553;29;20213;-70
2022/12/26 16:57:27;;;;;;;1999.90;999.90;;;;;;;;;;4955641;29;20184;-69
2022/12/26 17:00:16;;;;;;;1999.90;999.90;;;;;;;;;;4955876;29;20273;-69
2022/12/26 17:03:02;;;;;;;1999.90;999.90;;;;;;;;;;4955724;29;20811;-69
2022/12/26 17:05:47;;;;;;;1999.90;999.90;;;;;;;;;;4953987;29;20445;-69
2022/12/26 17:08:32;;;;;;;1999.90;999.90;;;;;;;;;;4955221;29;20239;-69
2022/12/26 17:11:25;;;;;;;1999.90;999.90;;;;;;;;;;4955663;29;20723;-69
2022/12/26 17:14:17;;;;;;;1999.90;999.90;;;;;;;;;;4955522;29;20349;-69
2022/12/26 17:17:03;;;;;;;1999.90;999.90;;;;;;;;;;4955271;28;20220;-69
2022/12/26 17:19:49;;;;;;;1999.90;999.90;;;;;;;;;;4955348;29;20677;-69
2022/12/26 17:22:35;;;;;;;1999.90;999.90;;;;;;;;;;4955388;29;20287;-68
2022/12/26 17:25:23;;;;;;;1999.90;999.90;;;;;;;;;;4955070;29;20711;-69
2022/12/26 17:28:32;;;;;;;1999.90;999.90;;;;;;;;;;4953797;29;20959;-70
2022/12/26 17:31:22;;;;;;;1999.90;999.90;;;;;;;;;;4952094;28;20311;-69
2022/12/26 17:34:12;;;;;;;1999.90;999.90;;;;;;;;;;4955171;29;20205;-68
2022/12/26 17:37:02;;;;;;;1999.90;999.90;;;;;;;;;;4954981;29;20204;-69
2022/12/26 17:39:51;;;;;;;1999.90;999.90;;;;;;;;;;4954981;29;20209;-69
2022/12/26 17:42:39;;;;;;;1999.90;999.90;;;;;;;;;;4954593;29;20228;-69
2022/12/26 17:45:25;;;;;;;1999.90;999.90;;;;;;;;;;4954351;29;20201;-69
2022/12/26 17:48:12;;;;;;;1999.90;999.90;;;;;;;;;;4954713;29;20364;-69
2022/12/26 17:50:58;;;;;;;1999.90;999.90;;;;;;;;;;4954843;29;20232;-69
2022/12/26 17:53:46;;;;;;;1999.90;999.90;;;;;;;;;;4954821;29;20231;-69
2022/12/26 17:56:31;;;;;;;1999.90;999.90;;;;;;;;;;4954614;29;20213;-69
2022/12/26 17:59:16;;;;;;;1999.90;999.90;;;;;;;;;;4954788;29;20217;-70
2022/12/26 18:02:01;;;;;;;1999.90;999.90;;;;;;;;;;4954376;29;20240;-68
2022/12/26 18:04:48;;;;;;;1999.90;999.90;;;;;;;;;;4954057;29;20241;-69
2022/12/26 18:07:33;;;;;;;1999.90;999.90;;;;;;;;;;4954557;29;20220;-69
2022/12/26 18:10:20;;;;;;;1999.90;999.90;;;;;;;;;;4954466;29;20211;-69
2022/12/26 18:13:06;;;;;;;1999.90;999.90;;;;;;;;;;4954541;29;20211;-69
2022/12/26 18:15:52;;;;;;;1999.90;999.90;;;;;;;;;;4954191;29;20209;-69
2022/12/26 18:18:38;;;;;;;1999.90;999.90;;;;;;;;;;4954285;29;20572;-69
2022/12/26 18:21:24;;;;;;;1999.90;999.90;;;;;;;;;;4954364;29;20767;-69
2022/12/26 18:24:09;;;;;;;1999.90;999.90;;;;;;;;;;4954405;29;20681;-69
2022/12/26 18:26:54;;;;;;;1999.90;999.90;;;;;;;;;;4954051;29;20763;-69
2022/12/26 18:29:40;;;;;;;1999.90;999.90;;;;;;;;;;4952966;29;20468;-69
2022/12/26 18:32:27;;;;;;;1999.90;999.90;;;;;;;;;;4954567;29;20228;-69
2022/12/26 18:35:12;;;;;;;1999.90;999.90;;;;;;;;;;4953891;29;20212;-69
2022/12/26 18:37:59;;;;;;;1999.90;999.90;;;;;;;;;;4954036;29;20233;-69
2022/12/26 18:40:45;;;;;;;1999.90;999.90;;;;;;;;;;4954066;29;20220;-69
2022/12/26 18:43:31;;;;;;;1999.90;999.90;;;;;;;;;;4953813;29;20208;-68
2022/12/26 18:46:16;;;;;;;1999.90;999.90;;;;;;;;;;4953912;29;20205;-69
2022/12/26 18:49:01;;;;;;;1999.90;999.90;;;;;;;;;;4953800;29;20232;-69
2022/12/26 18:51:46;;;;;;;1999.90;999.90;;;;;;;;;;4953121;29;20420;-69
2022/12/26 18:54:35;;;;;;;1999.90;999.90;;;;;;;;;;4953893;29;20212;-69
2022/12/26 18:57:20;;;;;;;1999.90;999.90;;;;;;;;;;4954226;29;20204;-69
2022/12/26 19:00:05;;;;;;;1999.90;999.90;;;;;;;;;;4953692;29;20284;-69
2022/12/26 19:02:51;;;;;;;1999.90;999.90;;;;;;;;;;4953947;29;20303;-69
2022/12/26 19:05:36;;;;;;;1999.90;999.90;;;;;;;;;;4953805;29;20707;-70
2022/12/26 19:08:21;;;;;;;1999.90;999.90;;;;;;;;;;4953562;29;20304;-69
2022/12/26 19:11:07;;;;;;;1999.90;999.90;;;;;;;;;;4953886;29;20743;-69
2022/12/26 19:13:52;;;;;;;1999.90;999.90;;;;;;;;;;4954361;29;20441;-69
2022/12/26 19:16:38;;;;;;;1999.90;999.90;;;;;;;;;;4953717;29;20212;-69
2022/12/26 19:19:25;;;;;;;1999.90;999.90;;;;;;;;;;4953835;29;20205;-69
2022/12/26 19:22:10;;;;;;;1999.90;999.90;;;;;;;;;;4953841;29;20229;-68
2022/12/26 19:24:55;;;;;;;1999.90;999.90;;;;;;;;;;4953280;29;20269;-69
2022/12/26 19:27:42;;;;;;;1999.90;999.90;;;;;;;;;;4953620;29;20367;-69
2022/12/26 19:30:27;;;;;;;1999.90;999.90;;;;;;;;;;4953757;29;20288;-69
2022/12/26 19:33:12;;;;;;;1999.90;999.90;;;;;;;;;;4953503;29;20209;-69
2022/12/26 19:35:57;;;;;;;1999.90;999.90;;;;;;;;;;4953523;29;20260;-69
2022/12/26 19:38:42;;;;;;;1999.90;999.90;;;;;;;;;;4953649;28;20201;-68
2022/12/26 19:41:27;;;;;;;1999.90;999.90;;;;;;;;;;4956660;29;20227;-69
2022/12/26 19:44:13;;;;;;;1999.90;999.90;;;;;;;;;;4956617;29;20225;-69
2022/12/26 19:46:58;;;;;;;1999.90;999.90;;;;;;;;;;4956902;29;20209;-69
2022/12/26 19:49:43;;;;;;;1999.90;999.90;;;;;;;;;;4956928;29;20201;-69
2022/12/26 19:52:28;;;;;;;1999.90;999.90;;;;;;;;;;4955282;29;20425;-69
2022/12/26 19:55:14;;;;;;;1999.90;999.90;;;;;;;;;;4956494;29;20329;-68
2022/12/26 19:57:58;;;;;;;1999.90;999.90;;;;;;;;;;4957194;29;20221;-69
2022/12/26 20:00:45;;;;;;;1999.90;999.90;;;;;;;;;;4956377;29;20312;-69
2022/12/26 20:03:30;;;;;;;1999.90;999.90;;;;;;;;;;4956631;29;20212;-69
2022/12/26 20:06:16;;;;;;;1999.90;999.90;;;;;;;;;;4956308;29;20284;-69
2022/12/26 20:09:04;;;;;;;1999.90;999.90;;;;;;;;;;4956193;29;20224;-69
2022/12/26 20:11:49;;;;;;;1999.90;999.90;;;;;;;;;;4956543;29;20228;-69
2022/12/26 20:14:34;;;;;;;1999.90;999.90;;;;;;;;;;4954931;29;20417;-69
2022/12/26 20:17:20;;;;;;;1999.90;999.90;;;;;;;;;;4956372;29;20248;-68
2022/12/26 20:20:05;;;;;;;1999.90;999.90;;;;;;;;;;4956341;29;20217;-69
2022/12/26 20:22:50;;;;;;;1999.90;999.90;;;;;;;;;;4956256;29;20699;-69
2022/12/26 20:25:37;;;;;;;1999.90;999.90;;;;;;;;;;4956420;29;20208;-69
2022/12/26 20:28:23;;;;;;;1999.90;999.90;;;;;;;;;;4955896;29;20610;-68
2022/12/26 20:31:09;;;;;;;1999.90;999.90;;;;;;;;;;4956045;29;20307;-69
2022/12/26 20:33:56;;;;;;;1999.90;999.90;;;;;;;;;;4956530;29;20213;-70
2022/12/26 20:36:41;;;;;;;1999.90;999.90;;;;;;;;;;4955703;29;20296;-69
2022/12/26 20:39:26;;;;;;;1999.90;999.90;;;;;;;;;;4955791;29;20197;-69
2022/12/26 20:42:14;;;;;;;1999.90;999.90;;;;;;;;;;4955838;29;20376;-69
2022/12/26 20:44:59;;;;;;;1999.90;999.90;;;;;;;;;;4955572;29;20289;-69
2022/12/26 20:47:44;;;;;;;1999.90;999.90;;;;;;;;;;4955748;29;20230;-69
2022/12/26 20:50:30;;;;;;;1999.90;999.90;;;;;;;;;;4955134;28;20691;-69
2022/12/26 20:53:15;;;;;;;1999.90;999.90;;;;;;;;;;4955842;29;20575;-69
2022/12/26 20:56:00;;;;;;;1999.90;999.90;;;;;;;;;;4955123;29;20947;-69
2022/12/26 20:58:45;;;;;;;1999.90;999.90;;;;;;;;;;4955641;29;20237;-69
2022/12/26 21:01:31;;;;;;;1999.90;999.90;;;;;;;;;;4955544;29;20617;-69
2022/12/26 21:04:17;;;;;;;1999.90;999.90;;;;;;;;;;4972210;28;20281;-69
2022/12/26 21:07:03;;;;;;;1999.90;999.90;;;;;;;;;;4973104;28;20593;-69
2022/12/26 21:09:48;;;;;;;1999.90;999.90;;;;;;;;;;4972885;28;20748;-70
2022/12/26 21:12:33;;;;;;;1999.90;999.90;;;;;;;;;;4982216;28;20713;-70